Time;durP1;ratioP1;P1;durP2;ratioP2;P2;SDS_P1;SDS_P2;PMS_P1;PMS_P2;Temp;Humidity;BMP_temperature;BMP_pressure;BME280_temperature;BME280_humidity;BME280_pressure;Samples;Min_cycle;Max_cycle;Signal;HPM_P1;HPM_P2
2023/06/04 00:00:34;;;;;;;11.77;4.20;;;;;;;;;;5020538;28;20048;-88
2023/06/04 00:03:00;;;;;;;;;;;;;;;;;;5021289;28;20033;-88
2023/06/04 00:05:26;;;;;;;5.85;3.88;;;;;;;;;;5050614;28;19927;-88
2023/06/04 00:07:52;;;;;;;8.32;4.00;;;;;;;;;;5031574;28;20044;-88
2023/06/04 00:10:18;;;;;;;6.07;4.35;;;;;;;;;;5040903;28;20048;-88
2023/06/04 00:12:44;;;;;;;7.53;4.05;;;;;;;;;;5034111;28;20037;-88
2023/06/04 00:15:11;;;;;;;9.57;4.22;;;;;;;;;;5029658;28;20102;-88
2023/06/04 00:17:37;;;;;;;9.48;4.40;;;;;;;;;;5033486;28;20040;-88
2023/06/04 00:20:03;;;;;;;6.50;4.25;;;;;;;;;;5037853;28;20087;-88
2023/06/04 00:22:29;;;;;;;8.40;4.18;;;;;;;;;;5042357;28;20068;-88
2023/06/04 00:24:58;;;;;;;7.95;4.05;;;;;;;;;;5047622;28;20476;-87
2023/06/04 00:27:24;;;;;;;5.30;3.70;;;;;;;;;;5035793;28;20090;-87
2023/06/04 00:29:50;;;;;;;8.23;4.07;;;;;;;;;;5032024;28;20041;-87
2023/06/04 00:32:16;;;;;;;11.57;4.85;;;;;;;;;;5025023;28;20044;-87
2023/06/04 00:34:42;;;;;;;10.98;4.50;;;;;;;;;;5021162;28;20398;-88
2023/06/04 00:37:08;;;;;;;8.23;4.28;;;;;;;;;;5048149;28;20049;-87
2023/06/04 00:39:34;;;;;;;8.15;4.10;;;;;;;;;;5030068;28;20041;-89
2023/06/04 00:42:01;;;;;;;11.40;4.88;;;;;;;;;;5033909;28;21594;-87
2023/06/04 00:44:27;;;;;;;10.65;4.68;;;;;;;;;;5050368;28;20115;-87
2023/06/04 00:46:56;;;;;;;9.75;4.40;;;;;;;;;;5033421;28;20467;-87
2023/06/04 00:49:22;;;;;;;7.57;4.22;;;;;;;;;;5048243;28;20052;-87
2023/06/04 00:51:48;;;;;;;8.82;4.93;;;;;;;;;;5044632;28;20041;-87
2023/06/04 00:54:14;;;;;;;7.70;4.28;;;;;;;;;;5034668;28;20435;-87
2023/06/04 00:56:40;;;;;;;8.57;4.38;;;;;;;;;;5035521;28;20059;-88
2023/06/04 00:59:06;;;;;;;6.65;3.95;;;;;;;;;;5034065;28;20040;-87
2023/06/04 01:01:52;;;;;;;6.65;3.60;;;;;;;;;;5039941;28;20041;-87
2023/06/04 01:04:21;;;;;;;10.57;4.72;;;;;;;;;;5032638;28;20048;-87
2023/06/04 01:06:49;;;;;;;9.43;4.22;;;;;;;;;;5027331;28;20103;-88
2023/06/04 01:09:15;;;;;;;;;;;;;;;;;;5013589;28;20065;-87
2023/06/04 01:11:41;;;;;;;8.55;4.15;;;;;;;;;;5029079;28;20390;-87
2023/06/04 01:14:08;;;;;;;11.60;4.90;;;;;;;;;;5051489;28;20127;-88
2023/06/04 01:16:38;;;;;;;7.13;3.97;;;;;;;;;;5043768;28;20380;-88
2023/06/04 01:19:08;;;;;;;10.35;4.57;;;;;;;;;;5050513;28;20102;-87
2023/06/04 01:21:38;;;;;;;8.63;4.20;;;;;;;;;;5015012;28;20551;-87
2023/06/04 01:24:06;;;;;;;8.30;3.85;;;;;;;;;;5032578;28;20094;-87
2023/06/04 01:26:32;;;;;;;7.72;4.40;;;;;;;;;;5054550;28;20041;-87
2023/06/04 01:28:58;;;;;;;10.52;5.25;;;;;;;;;;5022495;28;20082;-88
2023/06/04 01:31:25;;;;;;;9.10;4.72;;;;;;;;;;5037284;28;20179;-87
2023/06/04 01:33:55;;;;;;;8.98;5.30;;;;;;;;;;5050370;28;20653;-87
2023/06/04 01:36:22;;;;;;;6.47;4.38;;;;;;;;;;5045676;28;20060;-87
2023/06/04 01:38:48;;;;;;;13.32;5.00;;;;;;;;;;5028889;28;20040;-87
2023/06/04 01:41:17;;;;;;;10.88;5.82;;;;;;;;;;5028342;28;20044;-87
2023/06/04 01:43:44;;;;;;;9.63;5.60;;;;;;;;;;5016355;28;20036;-87
2023/06/04 01:46:10;;;;;;;10.40;5.63;;;;;;;;;;5045860;28;20036;-87
2023/06/04 01:48:36;;;;;;;12.57;5.25;;;;;;;;;;5030503;28;20043;-88
2023/06/04 01:51:02;;;;;;;11.63;6.00;;;;;;;;;;5033444;28;20045;-87
2023/06/04 01:53:29;;;;;;;9.38;5.50;;;;;;;;;;5026621;28;20041;-88
2023/06/04 01:55:57;;;;;;;8.77;5.65;;;;;;;;;;5044717;28;20044;-87
2023/06/04 01:58:26;;;;;;;9.27;5.80;;;;;;;;;;5042481;28;20041;-87
2023/06/04 02:00:54;;;;;;;8.57;5.40;;;;;;;;;;5046379;28;20157;-88
2023/06/04 02:03:21;;;;;;;11.73;6.18;;;;;;;;;;5033790;28;20063;-88
2023/06/04 02:05:48;;;;;;;13.60;6.05;;;;;;;;;;5013970;28;20041;-87
2023/06/04 02:08:18;;;;;;;12.75;5.65;;;;;;;;;;5030922;28;20041;-87
2023/06/04 02:10:46;;;;;;;13.00;5.65;;;;;;;;;;5043983;28;20033;-87
2023/06/04 02:13:12;;;;;;;12.52;5.63;;;;;;;;;;5022765;28;20047;-87
2023/06/04 02:15:38;;;;;;;10.00;6.05;;;;;;;;;;5010713;28;20048;-87
2023/06/04 02:18:15;;;;;;;9.18;5.82;;;;;;;;;;5030477;28;20122;-87
2023/06/04 02:20:41;;;;;;;8.82;5.65;;;;;;;;;;5030122;28;20049;-88
2023/06/04 02:23:07;;;;;;;9.93;5.88;;;;;;;;;;5021310;28;20403;-87
2023/06/04 02:25:34;;;;;;;9.57;5.82;;;;;;;;;;5024256;28;20407;-87
2023/06/04 02:28:00;;;;;;;12.40;5.57;;;;;;;;;;5031039;28;20140;-87
2023/06/04 02:30:26;;;;;;;10.05;5.43;;;;;;;;;;5016336;28;20373;-87
2023/06/04 02:32:54;;;;;;;12.35;5.85;;;;;;;;;;5038957;28;20041;-88
2023/06/04 02:35:22;;;;;;;12.18;5.80;;;;;;;;;;5042791;28;23120;-87
2023/06/04 02:37:49;;;;;;;9.05;5.97;;;;;;;;;;5024527;28;20427;-87
2023/06/04 02:40:15;;;;;;;11.45;5.63;;;;;;;;;;5048793;28;20045;-87
2023/06/04 02:42:41;;;;;;;11.48;6.07;;;;;;;;;;5028920;28;20477;-87
2023/06/04 02:45:08;;;;;;;10.55;5.72;;;;;;;;;;5029900;28;20041;-87
2023/06/04 02:47:34;;;;;;;9.90;6.07;;;;;;;;;;5045922;28;20398;-87
2023/06/04 02:50:00;;;;;;;10.82;6.78;;;;;;;;;;5022899;28;20490;-87
2023/06/04 02:52:26;;;;;;;10.10;6.40;;;;;;;;;;5046638;28;20545;-87
2023/06/04 02:54:52;;;;;;;12.30;6.75;;;;;;;;;;5040088;28;20033;-87
2023/06/04 02:57:18;;;;;;;14.57;7.15;;;;;;;;;;5043473;28;20040;-87
2023/06/04 02:59:44;;;;;;;11.88;6.43;;;;;;;;;;5043514;28;20575;-87
2023/06/04 03:02:11;;;;;;;16.50;7.07;;;;;;;;;;5031905;28;20127;-88
2023/06/04 03:04:37;;;;;;;13.68;6.70;;;;;;;;;;5043491;28;20408;-88
2023/06/04 03:07:04;;;;;;;15.25;7.00;;;;;;;;;;5042843;28;20526;-87
2023/06/04 03:09:35;;;;;;;11.32;7.18;;;;;;;;;;5014955;28;20048;-87
2023/06/04 03:12:01;;;;;;;11.85;6.65;;;;;;;;;;5043999;28;20032;-87
2023/06/04 03:14:32;;;;;;;13.73;6.90;;;;;;;;;;5049231;28;20402;-87
2023/06/04 03:17:07;;;;;;;11.18;6.93;;;;;;;;;;5039842;28;20044;-87
2023/06/04 03:19:34;;;;;;;12.95;7.03;;;;;;;;;;5050369;28;20723;-87
2023/06/04 03:22:00;;;;;;;17.90;7.43;;;;;;;;;;5047306;28;20059;-87
2023/06/04 03:24:26;;;;;;;12.23;6.78;;;;;;;;;;5046349;28;20510;-87
2023/06/04 03:26:52;;;;;;;11.93;7.45;;;;;;;;;;5044373;28;20483;-87
2023/06/04 03:29:18;;;;;;;12.40;6.40;;;;;;;;;;5049966;28;20123;-87
2023/06/04 03:31:45;;;;;;;11.57;6.57;;;;;;;;;;5030996;28;20040;-87
2023/06/04 03:34:11;;;;;;;15.10;7.05;;;;;;;;;;5040683;28;20912;-88
2023/06/04 03:36:38;;;;;;;13.70;6.97;;;;;;;;;;5050045;28;20563;-88
2023/06/04 03:39:04;;;;;;;10.35;6.35;;;;;;;;;;5052573;28;20033;-87
2023/06/04 03:41:30;;;;;;;12.30;7.18;;;;;;;;;;5033361;28;20053;-88
2023/06/04 03:43:56;;;;;;;13.93;7.65;;;;;;;;;;5031436;28;20048;-87
2023/06/04 03:46:25;;;;;;;9.70;6.97;;;;;;;;;;5028029;28;20036;-87
2023/06/04 03:48:51;;;;;;;;;;;;;;;;;;5048636;28;20094;-87
2023/06/04 03:51:17;;;;;;;10.77;7.18;;;;;;;;;;5051732;28;20406;-87
2023/06/04 03:53:43;;;;;;;11.52;7.07;;;;;;;;;;5031044;28;20049;-88
2023/06/04 03:56:09;;;;;;;10.85;7.13;;;;;;;;;;5023637;28;20045;-88
2023/06/04 03:58:38;;;;;;;11.52;8.15;;;;;;;;;;5047733;28;20079;-87
2023/06/04 04:01:05;;;;;;;11.48;8.00;;;;;;;;;;5038333;28;20459;-88
2023/06/04 04:03:31;;;;;;;11.48;7.57;;;;;;;;;;5026857;28;20051;-87
2023/06/04 04:05:58;;;;;;;17.25;7.50;;;;;;;;;;5025667;28;20040;-88
2023/06/04 04:08:25;;;;;;;15.30;8.15;;;;;;;;;;5049683;28;20040;-87
2023/06/04 04:10:51;;;;;;;13.30;7.65;;;;;;;;;;5017341;28;20047;-87
2023/06/04 04:13:17;;;;;;;14.63;7.78;;;;;;;;;;5019692;28;20102;-87
2023/06/04 04:15:44;;;;;;;13.13;7.85;;;;;;;;;;5048642;28;20048;-88
2023/06/04 04:18:10;;;;;;;13.73;7.60;;;;;;;;;;5019803;28;20051;-88
2023/06/04 04:20:36;;;;;;;14.90;8.02;;;;;;;;;;5046035;28;20453;-88
2023/06/04 04:23:02;;;;;;;15.18;8.05;;;;;;;;;;5052396;28;20040;-88
2023/06/04 04:25:28;;;;;;;15.15;8.13;;;;;;;;;;5052575;28;20036;-88
2023/06/04 04:27:56;;;;;;;12.10;7.40;;;;;;;;;;5026048;28;22026;-87
2023/06/04 04:30:23;;;;;;;12.03;8.33;;;;;;;;;;5051900;28;20041;-88
2023/06/04 04:32:49;;;;;;;14.70;8.40;;;;;;;;;;5018170;28;20107;-88
2023/06/04 04:35:18;;;;;;;16.75;8.65;;;;;;;;;;5048359;28;20045;-87
2023/06/04 04:37:44;;;;;;;;;;;;;;;;;;5028386;28;20051;-88
2023/06/04 04:40:11;;;;;;;17.65;7.80;;;;;;;;;;5050775;28;19925;-88
2023/06/04 04:42:38;;;;;;;12.00;7.60;;;;;;;;;;5030753;28;20044;-87
2023/06/04 04:45:04;;;;;;;13.23;8.65;;;;;;;;;;5016469;28;20040;-87
2023/06/04 04:47:30;;;;;;;13.10;8.63;;;;;;;;;;5042786;28;20128;-88
2023/06/04 04:49:56;;;;;;;10.65;8.18;;;;;;;;;;5036232;28;20125;-87
2023/06/04 04:52:22;;;;;;;11.80;7.40;;;;;;;;;;5023453;28;20090;-88
2023/06/04 04:54:48;;;;;;;11.02;7.90;;;;;;;;;;5011368;28;20068;-88
2023/06/04 05:04:36;;;;;;;17.80;9.32;;;;;;;;;;5000119;28;20055;-88
2023/06/04 05:07:03;;;;;;;12.65;9.05;;;;;;;;;;5042661;28;20048;-88
2023/06/04 05:09:29;;;;;;;15.55;9.32;;;;;;;;;;5053724;28;20072;-87
2023/06/04 05:11:55;;;;;;;16.42;10.52;;;;;;;;;;5031380;28;21768;-88
2023/06/04 05:14:21;;;;;;;17.15;10.48;;;;;;;;;;5037113;28;20047;-87
2023/06/04 05:16:48;;;;;;;16.33;10.88;;;;;;;;;;5033505;28;20037;-88
2023/06/04 05:19:15;;;;;;;15.13;10.55;;;;;;;;;;5040934;28;20099;-88
2023/06/04 05:21:43;;;;;;;18.90;11.25;;;;;;;;;;5045380;28;20045;-87
2023/06/04 05:24:10;;;;;;;14.88;10.25;;;;;;;;;;5052327;28;20044;-88
2023/06/04 05:26:37;;;;;;;18.88;10.88;;;;;;;;;;5030550;28;20045;-88
2023/06/04 05:29:04;;;;;;;16.73;10.55;;;;;;;;;;5036829;28;20044;-87
2023/06/04 05:31:33;;;;;;;17.83;10.98;;;;;;;;;;5043897;28;20123;-87
2023/06/04 05:34:01;;;;;;;17.17;11.18;;;;;;;;;;5043079;28;20043;-87
2023/06/04 05:36:28;;;;;;;20.35;11.32;;;;;;;;;;5033697;28;20044;-88
2023/06/04 05:38:57;;;;;;;14.90;10.90;;;;;;;;;;5034146;28;20049;-88
2023/06/04 05:41:27;;;;;;;21.13;12.05;;;;;;;;;;5026363;28;20384;-88
2023/06/04 05:43:53;;;;;;;15.45;10.70;;;;;;;;;;5035649;28;20033;-87
2023/06/04 05:46:19;;;;;;;15.93;10.73;;;;;;;;;;5050775;28;20049;-88
2023/06/04 05:48:45;;;;;;;18.08;11.07;;;;;;;;;;5045428;28;20079;-88
2023/06/04 05:51:13;;;;;;;21.70;11.80;;;;;;;;;;5032713;28;20859;-88
2023/06/04 05:53:39;;;;;;;20.30;10.98;;;;;;;;;;5021363;28;20052;-88
2023/06/04 05:56:05;;;;;;;12.32;10.50;;;;;;;;;;5041132;28;20080;-88
2023/06/04 05:58:34;;;;;;;17.80;10.32;;;;;;;;;;5027333;28;20047;-88
2023/06/04 06:01:00;;;;;;;19.08;11.50;;;;;;;;;;5046585;28;20053;-87
2023/06/04 06:03:27;;;;;;;18.42;11.27;;;;;;;;;;5026792;28;20121;-87
2023/06/04 06:05:54;;;;;;;22.15;10.85;;;;;;;;;;5050818;28;20040;-88
2023/06/04 06:08:20;;;;;;;17.50;10.93;;;;;;;;;;5041998;28;20390;-88
2023/06/04 06:10:47;;;;;;;16.02;9.90;;;;;;;;;;5020793;28;20479;-88
2023/06/04 06:13:13;;;;;;;16.58;11.15;;;;;;;;;;5055670;28;20040;-87
2023/06/04 06:15:39;;;;;;;18.27;11.07;;;;;;;;;;5037044;28;20101;-88
2023/06/04 06:18:05;;;;;;;11.38;9.80;;;;;;;;;;5043346;28;20679;-88
2023/06/04 06:20:32;;;;;;;16.02;10.27;;;;;;;;;;5053797;28;20052;-88
2023/06/04 06:22:58;;;;;;;14.70;10.50;;;;;;;;;;5016015;28;20182;-87
2023/06/04 06:25:24;;;;;;;16.45;10.95;;;;;;;;;;5057867;28;20584;-87
2023/06/04 06:27:51;;;;;;;12.90;9.50;;;;;;;;;;5049576;28;20040;-88
2023/06/04 06:30:18;;;;;;;13.23;9.35;;;;;;;;;;5039309;28;20055;-87
2023/06/04 06:32:45;;;;;;;15.20;9.60;;;;;;;;;;5048569;28;20055;-88
2023/06/04 06:35:11;;;;;;;13.05;9.10;;;;;;;;;;5036373;28;20490;-87
2023/06/04 06:37:41;;;;;;;12.27;8.73;;;;;;;;;;5028270;28;20040;-88
2023/06/04 06:40:08;;;;;;;15.73;9.57;;;;;;;;;;5041513;28;20056;-88
2023/06/04 06:42:36;;;;;;;12.77;8.43;;;;;;;;;;5046545;28;20094;-88
2023/06/04 06:45:03;;;;;;;13.68;8.73;;;;;;;;;;5039334;28;20072;-88
2023/06/04 06:47:29;;;;;;;13.90;8.60;;;;;;;;;;5021734;28;20058;-87
2023/06/04 06:49:55;;;;;;;12.80;8.25;;;;;;;;;;5020587;28;22421;-88
2023/06/04 06:52:21;;;;;;;14.23;8.23;;;;;;;;;;5031884;28;20050;-88
2023/06/04 06:54:47;;;;;;;15.30;7.90;;;;;;;;;;5011825;28;20788;-88
2023/06/04 06:57:15;;;;;;;20.42;8.75;;;;;;;;;;5039966;28;20057;-88
2023/06/04 06:59:41;;;;;;;12.57;6.68;;;;;;;;;;5020348;28;20396;-87
2023/06/04 07:02:07;;;;;;;12.98;7.10;;;;;;;;;;5033732;28;20049;-88
2023/06/04 07:04:36;;;;;;;10.27;4.90;;;;;;;;;;5052033;28;20037;-88
2023/06/04 07:07:03;;;;;;;9.57;4.45;;;;;;;;;;5056854;28;20373;-88
2023/06/04 07:09:29;;;;;;;13.88;3.83;;;;;;;;;;5052179;28;20498;-88
2023/06/04 07:11:55;;;;;;;9.57;3.60;;;;;;;;;;5035207;28;21007;-88
2023/06/04 07:14:21;;;;;;;6.43;3.10;;;;;;;;;;5036056;28;20076;-88
2023/06/04 07:16:47;;;;;;;10.98;3.30;;;;;;;;;;5035261;28;20051;-88
2023/06/04 07:19:13;;;;;;;6.45;3.05;;;;;;;;;;5038359;28;20037;-88
2023/06/04 07:21:39;;;;;;;23.63;3.88;;;;;;;;;;5016259;28;20040;-88
2023/06/04 07:24:05;;;;;;;7.45;2.97;;;;;;;;;;5038102;28;20049;-88
2023/06/04 07:26:32;;;;;;;6.68;2.85;;;;;;;;;;5038535;28;20040;-88
2023/06/04 07:28:58;;;;;;;7.63;3.22;;;;;;;;;;5037759;28;20068;-87
2023/06/04 07:31:24;;;;;;;5.88;3.25;;;;;;;;;;5029208;28;20083;-87
2023/06/04 07:33:50;;;;;;;5.93;2.85;;;;;;;;;;5029793;28;20041;-87
2023/06/04 07:36:17;;;;;;;6.47;3.08;;;;;;;;;;5036728;28;20521;-87
2023/06/04 07:38:43;;;;;;;6.45;3.38;;;;;;;;;;5017024;28;20064;-87
2023/06/04 07:41:09;;;;;;;6.63;3.10;;;;;;;;;;5054683;28;20048;-87
2023/06/04 07:43:35;;;;;;;10.00;3.38;;;;;;;;;;5012077;28;20037;-88
2023/06/04 07:46:02;;;;;;;7.50;3.10;;;;;;;;;;5069412;28;20035;-87
2023/06/04 07:48:30;;;;;;;7.60;3.38;;;;;;;;;;5034545;28;20382;-87
2023/06/04 07:51:04;;;;;;;6.47;3.20;;;;;;;;;;5029354;28;20049;-88
2023/06/04 07:53:30;;;;;;;6.68;3.03;;;;;;;;;;5053097;28;20068;-88
2023/06/04 07:55:56;;;;;;;5.18;2.47;;;;;;;;;;5044389;28;20049;-88
2023/06/04 07:58:22;;;;;;;5.57;2.95;;;;;;;;;;5070090;28;20048;-87
2023/06/04 08:00:48;;;;;;;6.15;2.63;;;;;;;;;;5051775;28;20118;-86
2023/06/04 08:03:15;;;;;;;9.93;3.70;;;;;;;;;;5045153;28;20032;-87
2023/06/04 08:05:41;;;;;;;8.57;3.45;;;;;;;;;;5043965;28;20041;-87
2023/06/04 08:08:07;;;;;;;8.90;2.30;;;;;;;;;;5030195;28;20040;-87
2023/06/04 08:10:33;;;;;;;7.22;2.40;;;;;;;;;;5045916;28;20033;-88
2023/06/04 08:13:02;;;;;;;6.57;2.67;;;;;;;;;;5051128;28;20461;-88
2023/06/04 08:15:28;;;;;;;4.55;2.53;;;;;;;;;;5046261;28;20441;-87
2023/06/04 08:17:54;;;;;;;7.75;2.92;;;;;;;;;;5043847;28;22088;-87
2023/06/04 08:20:20;;;;;;;7.32;2.63;;;;;;;;;;5047577;28;20390;-88
2023/06/04 08:22:47;;;;;;;6.75;1.90;;;;;;;;;;5027744;28;20124;-88
2023/06/04 08:25:13;;;;;;;5.30;1.98;;;;;;;;;;5028825;28;20476;-88
2023/06/04 08:27:39;;;;;;;5.50;1.85;;;;;;;;;;5040440;28;20119;-88
2023/06/04 08:30:07;;;;;;;5.70;2.17;;;;;;;;;;5042454;28;20044;-87
2023/06/04 08:32:35;;;;;;;7.05;2.50;;;;;;;;;;5048986;28;20036;-88
2023/06/04 08:35:02;;;;;;;5.47;1.95;;;;;;;;;;5048040;28;20032;-88
2023/06/04 08:37:28;;;;;;;7.07;2.63;;;;;;;;;;5051416;28;20041;-88
2023/06/04 08:39:54;;;;;;;5.40;2.30;;;;;;;;;;5022335;28;20040;-88
2023/06/04 08:42:20;;;;;;;6.22;2.45;;;;;;;;;;5048136;28;20492;-88
2023/06/04 08:44:47;;;;;;;7.80;2.13;;;;;;;;;;5045777;28;20033;-87
2023/06/04 08:47:13;;;;;;;3.13;1.60;;;;;;;;;;5052572;28;20996;-88
2023/06/04 08:49:39;;;;;;;4.72;2.05;;;;;;;;;;5048764;28;20430;-88
2023/06/04 08:52:06;;;;;;;8.73;1.98;;;;;;;;;;5050145;28;20136;-88
2023/06/04 08:54:32;;;;;;;3.65;1.80;;;;;;;;;;5048933;28;20045;-88
2023/06/04 08:56:59;;;;;;;5.72;1.88;;;;;;;;;;5046508;28;20051;-88
2023/06/04 08:59:25;;;;;;;3.73;1.80;;;;;;;;;;5042364;28;20116;-88
2023/06/04 09:01:52;;;;;;;5.30;2.00;;;;;;;;;;5030373;28;20291;-88
2023/06/04 09:04:18;;;;;;;4.05;1.80;;;;;;;;;;5038736;28;20044;-88
2023/06/04 09:06:45;;;;;;;4.25;1.73;;;;;;;;;;5019892;28;20025;-88
2023/06/04 09:09:12;;;;;;;4.35;1.58;;;;;;;;;;5053443;28;20044;-89
2023/06/04 09:11:53;;;;;;;5.72;2.00;;;;;;;;;;5047022;28;20076;-88
2023/06/04 09:14:19;;;;;;;4.43;1.90;;;;;;;;;;5019674;28;20048;-88
2023/06/04 09:16:46;;;;;;;3.28;1.63;;;;;;;;;;5030106;28;20094;-89
2023/06/04 09:19:12;;;;;;;5.88;1.70;;;;;;;;;;5047232;28;20049;-88
2023/06/04 09:21:51;;;;;;;2.90;1.50;;;;;;;;;;5014622;28;20130;-88
2023/06/04 09:24:17;;;;;;;4.30;1.50;;;;;;;;;;5030302;28;20403;-88
2023/06/04 09:26:43;;;;;;;4.47;1.80;;;;;;;;;;5045971;28;20123;-88
2023/06/04 09:29:10;;;;;;;4.95;1.80;;;;;;;;;;5018022;28;20036;-88
2023/06/04 09:31:39;;;;;;;5.00;1.67;;;;;;;;;;5047653;28;20432;-89
2023/06/04 09:34:06;;;;;;;4.40;1.63;;;;;;;;;;5052193;28;20047;-88
2023/06/04 09:36:35;;;;;;;5.20;2.00;;;;;;;;;;5046697;28;20040;-89
2023/06/04 09:39:04;;;;;;;3.60;1.70;;;;;;;;;;5047485;28;20380;-89
2023/06/04 09:41:31;;;;;;;4.70;1.58;;;;;;;;;;5036935;28;20441;-88
2023/06/04 09:44:02;;;;;;;4.82;1.60;;;;;;;;;;5029913;28;20040;-89
2023/06/04 09:46:28;;;;;;;3.05;1.42;;;;;;;;;;5023059;28;20059;-88
2023/06/04 09:49:01;;;;;;;2.97;1.65;;;;;;;;;;5038547;28;22384;-88
2023/06/04 09:51:27;;;;;;;3.00;1.50;;;;;;;;;;5056155;28;20106;-89
2023/06/04 09:53:55;;;;;;;1.73;1.40;;;;;;;;;;5035464;28;21415;-88
2023/06/04 09:56:21;;;;;;;4.95;1.60;;;;;;;;;;5048659;28;20478;-89
2023/06/04 09:58:48;;;;;;;2.13;1.60;;;;;;;;;;5057017;28;20411;-89
2023/06/04 10:01:14;;;;;;;3.75;1.50;;;;;;;;;;5037629;28;20086;-89
2023/06/04 10:03:41;;;;;;;2.38;1.48;;;;;;;;;;5043651;28;20052;-85
2023/06/04 10:06:07;;;;;;;3.80;1.55;;;;;;;;;;5020789;28;20120;-85
2023/06/04 10:08:36;;;;;;;2.92;1.52;;;;;;;;;;5027133;28;20074;-85
2023/06/04 10:11:02;;;;;;;2.17;1.33;;;;;;;;;;5031964;28;20048;-85
2023/06/04 10:13:36;;;;;;;4.32;1.55;;;;;;;;;;5032610;28;20479;-85
2023/06/04 10:16:02;;;;;;;1.95;1.20;;;;;;;;;;5024495;28;20453;-85
2023/06/04 10:18:31;;;;;;;4.00;1.27;;;;;;;;;;5012027;28;20498;-85
2023/06/04 10:20:57;;;;;;;2.22;1.13;;;;;;;;;;5044278;28;20368;-85
2023/06/04 10:23:24;;;;;;;2.63;1.50;;;;;;;;;;5044707;28;20403;-85
2023/06/04 10:25:52;;;;;;;4.00;1.48;;;;;;;;;;5045214;28;20061;-84
2023/06/04 10:28:19;;;;;;;3.05;1.65;;;;;;;;;;5042874;28;20079;-85
2023/06/04 10:30:45;;;;;;;1.85;1.30;;;;;;;;;;5037410;28;20044;-85
2023/06/04 10:33:11;;;;;;;3.40;1.55;;;;;;;;;;5055171;28;20040;-85
2023/06/04 10:35:37;;;;;;;2.28;1.23;;;;;;;;;;5041184;28;20044;-85
2023/06/04 10:38:10;;;;;;;2.50;1.20;;;;;;;;;;5051588;28;20556;-85
2023/06/04 10:40:37;;;;;;;4.20;2.10;;;;;;;;;;5041897;28;20044;-85
2023/06/04 10:43:06;;;;;;;2.78;1.58;;;;;;;;;;5052490;28;20071;-85
2023/06/04 10:45:32;;;;;;;4.57;1.50;;;;;;;;;;5037872;28;20416;-85
2023/06/04 10:48:02;;;;;;;4.00;1.42;;;;;;;;;;5041109;28;20399;-85
2023/06/04 10:50:28;;;;;;;2.85;1.38;;;;;;;;;;5047574;28;20502;-86
2023/06/04 10:52:55;;;;;;;2.40;1.38;;;;;;;;;;5037282;28;22256;-86
2023/06/04 10:55:21;;;;;;;1.88;1.23;;;;;;;;;;5046106;28;20036;-86
2023/06/04 10:57:57;;;;;;;2.58;1.50;;;;;;;;;;5037324;28;20071;-86
2023/06/04 11:00:23;;;;;;;1.58;1.25;;;;;;;;;;5017525;28;20049;-86
2023/06/04 11:02:56;;;;;;;3.50;1.30;;;;;;;;;;5042315;28;20085;-86
2023/06/04 11:05:22;;;;;;;3.28;1.67;;;;;;;;;;5043389;28;20036;-86
2023/06/04 11:07:49;;;;;;;4.50;1.90;;;;;;;;;;5040359;28;20491;-86
2023/06/04 11:10:15;;;;;;;2.72;1.42;;;;;;;;;;5042819;28;20047;-86
2023/06/04 11:12:42;;;;;;;5.93;1.50;;;;;;;;;;5040175;28;20036;-86
2023/06/04 11:15:08;;;;;;;2.97;1.30;;;;;;;;;;5032817;28;20097;-86
2023/06/04 11:17:35;;;;;;;3.08;1.40;;;;;;;;;;5045811;28;20062;-86
2023/06/04 11:20:01;;;;;;;3.40;1.23;;;;;;;;;;5018631;28;20048;-85
2023/06/04 11:22:27;;;;;;;2.63;1.50;;;;;;;;;;5048410;28;20119;-85
2023/06/04 11:24:58;;;;;;;3.03;1.30;;;;;;;;;;5046147;28;20043;-85
2023/06/04 11:27:25;;;;;;;4.78;1.50;;;;;;;;;;5031535;28;20043;-85
2023/06/04 11:29:54;;;;;;;3.40;1.45;;;;;;;;;;5029818;28;20040;-85
2023/06/04 11:32:24;;;;;;;2.50;1.60;;;;;;;;;;5033682;28;20044;-85
2023/06/04 11:34:50;;;;;;;5.32;1.60;;;;;;;;;;5024484;28;20061;-84
2023/06/04 11:37:16;;;;;;;3.97;1.85;;;;;;;;;;5041858;28;20036;-85
2023/06/04 11:39:44;;;;;;;2.47;1.33;;;;;;;;;;5040124;28;20052;-86
2023/06/04 11:42:10;;;;;;;;;;;;;;;;;;5051543;28;20036;-86
2023/06/04 11:44:36;;;;;;;3.97;1.58;;;;;;;;;;5035793;28;19939;-85
2023/06/04 11:47:05;;;;;;;2.58;1.30;;;;;;;;;;5022423;28;20048;-85
2023/06/04 11:49:31;;;;;;;5.53;1.70;;;;;;;;;;5043972;28;20075;-86
2023/06/04 11:51:57;;;;;;;2.25;1.50;;;;;;;;;;5010235;28;20032;-86
2023/06/04 11:54:23;;;;;;;3.40;1.27;;;;;;;;;;5019769;28;20040;-85
2023/06/04 11:56:50;;;;;;;3.45;1.23;;;;;;;;;;5022741;28;20044;-86
2023/06/04 11:59:16;;;;;;;2.10;1.48;;;;;;;;;;5022858;28;20045;-86
2023/06/04 12:01:42;;;;;;;2.63;1.35;;;;;;;;;;5032478;28;20387;-85
2023/06/04 12:04:16;;;;;;;3.53;1.30;;;;;;;;;;5046143;28;20086;-86
2023/06/04 12:06:56;;;;;;;4.68;1.40;;;;;;;;;;5021949;28;20044;-86
2023/06/04 12:09:28;;;;;;;2.78;1.13;;;;;;;;;;5041197;28;20102;-86
2023/06/04 12:12:04;;;;;;;2.20;1.00;;;;;;;;;;5039149;28;21223;-86
2023/06/04 12:14:30;;;;;;;2.53;1.30;;;;;;;;;;5028195;28;20048;-86
2023/06/04 12:16:56;;;;;;;2.83;1.20;;;;;;;;;;5037324;28;20042;-85
2023/06/04 12:19:23;;;;;;;2.72;1.33;;;;;;;;;;5037563;28;20075;-86
2023/06/04 12:22:00;;;;;;;1.77;1.08;;;;;;;;;;5036544;28;20110;-84
2023/06/04 12:24:26;;;;;;;2.85;1.30;;;;;;;;;;5042781;28;20173;-87
2023/06/04 12:27:00;;;;;;;3.10;1.27;;;;;;;;;;5041661;28;20140;-85
2023/06/04 12:29:26;;;;;;;2.65;1.35;;;;;;;;;;5039170;28;20032;-85
2023/06/04 12:31:53;;;;;;;2.45;1.38;;;;;;;;;;5032686;28;20039;-85
2023/06/04 12:34:19;;;;;;;3.05;1.33;;;;;;;;;;5043105;28;20234;-85
2023/06/04 12:36:45;;;;;;;2.25;1.10;;;;;;;;;;5038882;28;20209;-85
2023/06/04 12:39:11;;;;;;;2.95;1.42;;;;;;;;;;5039336;28;20071;-85
2023/06/04 12:41:37;;;;;;;3.33;1.42;;;;;;;;;;5030754;28;20734;-86
2023/06/04 12:44:03;;;;;;;2.25;1.35;;;;;;;;;;5033198;28;20044;-84
2023/06/04 12:46:29;;;;;;;8.45;1.48;;;;;;;;;;5036341;28;20071;-86
2023/06/04 12:48:55;;;;;;;3.33;1.40;;;;;;;;;;5014714;28;20040;-86
2023/06/04 12:51:21;;;;;;;3.88;1.60;;;;;;;;;;5033562;28;20132;-86
2023/06/04 12:53:48;;;;;;;2.95;1.70;;;;;;;;;;5015516;28;20044;-86
2023/06/04 12:56:14;;;;;;;4.35;1.70;;;;;;;;;;5034381;28;20040;-86
2023/06/04 12:58:40;;;;;;;3.40;1.67;;;;;;;;;;5035006;28;20044;-86
2023/06/04 13:01:06;;;;;;;3.72;1.77;;;;;;;;;;5005517;28;20051;-86
2023/06/04 13:03:32;;;;;;;4.28;1.63;;;;;;;;;;5038123;28;20053;-86
2023/06/04 13:05:58;;;;;;;3.03;1.52;;;;;;;;;;5030076;28;20169;-86
2023/06/04 13:08:24;;;;;;;2.45;1.52;;;;;;;;;;5035297;28;20039;-86
2023/06/04 13:10:51;;;;;;;4.78;2.53;;;;;;;;;;5022032;28;20421;-85
2023/06/04 13:13:17;;;;;;;3.42;1.42;;;;;;;;;;5021231;28;20040;-86
2023/06/04 13:15:43;;;;;;;5.05;1.30;;;;;;;;;;5044273;28;20041;-85
2023/06/04 13:18:09;;;;;;;3.38;1.42;;;;;;;;;;5035923;28;20040;-87
2023/06/04 13:20:40;;;;;;;3.83;1.52;;;;;;;;;;5022069;28;20078;-85
2023/06/04 13:23:06;;;;;;;3.42;1.45;;;;;;;;;;5044752;28;20083;-84
2023/06/04 13:25:33;;;;;;;2.25;1.30;;;;;;;;;;5028166;28;20037;-85
2023/06/04 13:28:13;;;;;;;3.60;1.52;;;;;;;;;;5072450;28;20394;-85
2023/06/04 13:30:39;;;;;;;3.72;1.30;;;;;;;;;;5040975;28;20123;-85
2023/06/04 13:33:05;;;;;;;2.60;1.48;;;;;;;;;;5024366;28;20578;-84
2023/06/04 13:35:32;;;;;;;3.28;1.58;;;;;;;;;;5041879;28;20086;-85
2023/06/04 13:37:58;;;;;;;4.78;1.65;;;;;;;;;;5028187;28;20037;-85
2023/06/04 13:40:24;;;;;;;2.80;1.38;;;;;;;;;;5049238;28;20036;-85
2023/06/04 13:42:50;;;;;;;3.53;1.50;;;;;;;;;;5038221;28;20172;-85
2023/06/04 13:45:16;;;;;;;2.00;1.38;;;;;;;;;;5055914;28;20521;-84
2023/06/04 13:47:43;;;;;;;3.15;1.50;;;;;;;;;;5023525;28;20043;-84
2023/06/04 13:50:09;;;;;;;4.13;1.60;;;;;;;;;;5046002;28;20044;-85
2023/06/04 13:52:35;;;;;;;5.63;1.83;;;;;;;;;;5037560;28;20055;-85
2023/06/04 13:55:01;;;;;;;5.40;1.98;;;;;;;;;;5033601;28;20055;-85
2023/06/04 13:57:28;;;;;;;4.07;1.50;;;;;;;;;;5040287;28;21663;-85
2023/06/04 13:59:54;;;;;;;2.95;1.55;;;;;;;;;;5050328;28;23730;-86
2023/06/04 14:02:20;;;;;;;4.03;1.55;;;;;;;;;;5016955;28;20064;-86
2023/06/04 14:04:47;;;;;;;3.42;1.70;;;;;;;;;;5059129;28;20138;-86
2023/06/04 14:07:13;;;;;;;4.78;1.65;;;;;;;;;;5020557;28;20044;-86
2023/06/04 14:09:39;;;;;;;5.28;1.77;;;;;;;;;;5047040;28;20048;-85
2023/06/04 14:12:06;;;;;;;2.17;1.85;;;;;;;;;;5036242;28;20126;-86
2023/06/04 14:14:36;;;;;;;3.13;1.70;;;;;;;;;;5029033;28;20047;-86
2023/06/04 14:17:02;;;;;;;4.30;1.80;;;;;;;;;;5048529;28;20318;-85
2023/06/04 14:19:28;;;;;;;3.72;1.80;;;;;;;;;;5046483;28;20044;-86
2023/06/04 14:21:54;;;;;;;4.07;1.90;;;;;;;;;;5052318;28;21622;-85
2023/06/04 14:24:21;;;;;;;3.13;1.60;;;;;;;;;;5050452;28;20060;-85
2023/06/04 14:26:47;;;;;;;5.95;2.05;;;;;;;;;;5056672;28;20036;-86
2023/06/04 14:29:13;;;;;;;3.97;1.50;;;;;;;;;;5037741;28;20039;-85
2023/06/04 14:31:39;;;;;;;7.20;2.70;;;;;;;;;;5010320;28;20099;-86
2023/06/04 14:34:07;;;;;;;3.75;1.65;;;;;;;;;;5016632;28;20060;-85
2023/06/04 14:36:33;;;;;;;3.65;1.83;;;;;;;;;;5038443;28;20047;-85
2023/06/04 14:38:59;;;;;;;4.80;1.92;;;;;;;;;;5020446;28;20080;-85
2023/06/04 14:41:26;;;;;;;5.00;1.58;;;;;;;;;;5055071;28;20491;-84
2023/06/04 14:43:52;;;;;;;3.10;1.48;;;;;;;;;;5032237;28;20048;-86